Time;durP1;ratioP1;P1;durP2;ratioP2;P2;SDS_P1;SDS_P2;PMS_P1;PMS_P2;Temp;Humidity;BMP_temperature;BMP_pressure;BME280_temperature;BME280_humidity;BME280_pressure;Samples;Min_cycle;Max_cycle;Signal;HPM_P1;HPM_P2
2022/05/24 00:02:16;;;;;;;;;17.00;13.00;;;;;;;;5099044;28;8784;-57
2022/05/24 00:05:00;;;;;;;;;18.25;14.00;;;;;;;;5099271;28;9555;-57
2022/05/24 00:07:44;;;;;;;;;18.50;13.50;;;;;;;;5099332;28;8779;-59
2022/05/24 00:10:30;;;;;;;;;17.75;12.25;;;;;;;;5098914;28;8811;-55
2022/05/24 00:13:15;;;;;;;;;18.50;14.50;;;;;;;;5098885;28;8921;-53
2022/05/24 00:15:59;;;;;;;;;20.25;12.25;;;;;;;;5099183;28;8772;-58
2022/05/24 00:18:44;;;;;;;;;15.00;12.00;;;;;;;;5099054;28;8788;-58
2022/05/24 00:21:28;;;;;;;;;15.00;10.75;;;;;;;;5098769;28;8771;-57
2022/05/24 00:24:13;;;;;;;;;18.50;9.75;;;;;;;;5097965;28;8787;-55
2022/05/24 00:26:58;;;;;;;;;10.50;4.25;;;;;;;;5098971;28;8783;-57
2022/05/24 00:29:42;;;;;;;;;11.75;11.75;;;;;;;;5097956;28;8799;-56
2022/05/24 00:32:26;;;;;;;;;19.25;10.00;;;;;;;;5098492;28;8771;-58
2022/05/24 00:35:11;;;;;;;;;13.25;9.25;;;;;;;;5098723;28;8819;-57
2022/05/24 00:37:56;;;;;;;;;10.00;7.75;;;;;;;;5098733;28;8783;-57
2022/05/24 00:40:43;;;;;;;;;18.25;10.50;;;;;;;;5098182;28;8791;-58
2022/05/24 00:43:33;;;;;;;;;15.25;7.25;;;;;;;;5098344;28;8791;-56
2022/05/24 00:46:22;;;;;;;;;18.75;9.25;;;;;;;;5098262;28;8800;-56
2022/05/24 00:49:25;;;;;;;;;18.50;8.25;;;;;;;;5098628;28;9196;-58
2022/05/24 00:52:09;;;;;;;;;24.25;8.50;;;;;;;;5097613;28;8807;-56
2022/05/24 00:54:54;;;;;;;;;9.50;6.00;;;;;;;;5098554;28;8792;-58
2022/05/24 00:57:45;;;;;;;;;11.75;7.75;;;;;;;;5086085;28;8786;-58
2022/05/24 01:00:30;;;;;;;;;9.50;7.75;;;;;;;;5077812;28;8810;-56
2022/05/24 01:03:15;;;;;;;;;9.50;8.00;;;;;;;;5078063;28;8802;-54
2022/05/24 01:05:59;;;;;;;;;10.75;7.75;;;;;;;;5077914;28;9545;-59
2022/05/24 01:08:45;;;;;;;;;8.75;6.50;;;;;;;;5077818;28;8782;-58
2022/05/24 01:11:31;;;;;;;;;12.25;8.25;;;;;;;;5077564;28;8809;-57
2022/05/24 01:14:17;;;;;;;;;17.00;11.25;;;;;;;;5077894;28;8806;-58
2022/05/24 01:17:02;;;;;;;;;14.25;7.25;;;;;;;;5077586;28;8786;-57
2022/05/24 01:19:47;;;;;;;;;10.25;8.25;;;;;;;;5077572;28;9664;-58
2022/05/24 01:22:50;;;;;;;;;15.50;5.50;;;;;;;;5077387;28;8787;-57
2022/05/24 01:25:40;;;;;;;;;11.50;5.50;;;;;;;;5077185;28;8822;-59
2022/05/24 01:28:43;;;;;;;;;15.50;10.25;;;;;;;;5077443;28;8822;-56
2022/05/24 01:37:34;;;;;;;;;13.25;7.00;;;;;;;;5086131;28;8779;-58
2022/05/24 01:40:19;;;;;;;;;13.00;9.25;;;;;;;;5097574;28;8803;-58
2022/05/24 01:43:03;;;;;;;;;13.50;7.50;;;;;;;;5097545;28;8783;-58
2022/05/24 01:45:57;;;;;;;;;11.00;7.75;;;;;;;;5097536;28;8776;-57
2022/05/24 01:48:46;;;;;;;;;14.75;10.00;;;;;;;;5097091;28;8784;-58
2022/05/24 01:51:34;;;;;;;;;8.25;7.75;;;;;;;;5097114;28;8783;-58
2022/05/24 01:54:19;;;;;;;;;16.50;7.50;;;;;;;;5097460;28;8779;-59
2022/05/24 01:57:15;;;;;;;;;11.00;8.00;;;;;;;;5097424;28;8771;-57
2022/05/24 02:00:01;;;;;;;;;12.25;9.50;;;;;;;;5097139;28;8795;-57
2022/05/24 02:02:46;;;;;;;;;10.50;8.00;;;;;;;;5096929;28;8792;-58
2022/05/24 02:05:35;;;;;;;;;9.75;7.25;;;;;;;;5096873;28;8894;-58
2022/05/24 02:08:19;;;;;;;;;8.50;7.00;;;;;;;;5097221;28;8783;-58
2022/05/24 02:11:04;;;;;;;;;14.75;8.75;;;;;;;;5096164;28;8803;-58
2022/05/24 02:13:48;;;;;;;;;13.50;7.50;;;;;;;;5096940;28;8792;-59
2022/05/24 02:16:36;;;;;;;;;17.75;8.75;;;;;;;;5097119;28;8827;-58
2022/05/24 02:19:23;;;;;;;;;8.00;7.50;;;;;;;;5097199;28;8784;-60
2022/05/24 02:22:11;;;;;;;;;17.00;9.50;;;;;;;;5070412;28;8783;-59
2022/05/24 02:25:02;;;;;;;;;13.25;10.00;;;;;;;;5076229;28;8810;-57
2022/05/24 02:27:47;;;;;;;;;16.00;7.25;;;;;;;;5094969;28;8752;-59
2022/05/24 02:30:32;;;;;;;;;12.25;7.75;;;;;;;;5096697;28;8811;-59
2022/05/24 02:33:16;;;;;;;;;13.25;8.75;;;;;;;;5096707;28;8772;-56
2022/05/24 02:36:01;;;;;;;;;12.75;5.75;;;;;;;;5096552;28;8760;-58
2022/05/24 02:38:46;;;;;;;;;13.75;7.75;;;;;;;;5096513;28;8775;-57
2022/05/24 02:41:31;;;;;;;;;12.25;8.25;;;;;;;;5096587;28;8799;-56
2022/05/24 02:44:16;;;;;;;;;12.75;5.75;;;;;;;;5096692;28;8787;-58
2022/05/24 02:47:00;;;;;;;;;10.75;8.00;;;;;;;;5096676;28;8776;-56
2022/05/24 02:49:45;;;;;;;;;8.00;6.75;;;;;;;;5096448;28;8930;-59
2022/05/24 02:52:30;;;;;;;;;15.25;7.75;;;;;;;;5096749;28;8783;-58
2022/05/24 02:55:14;;;;;;;;;13.00;6.00;;;;;;;;5096623;28;8775;-56
2022/05/24 02:57:58;;;;;;;;;12.25;7.25;;;;;;;;5096529;28;8767;-57
2022/05/24 03:00:43;;;;;;;;;11.50;7.50;;;;;;;;5096513;28;8815;-57
2022/05/24 03:03:27;;;;;;;;;14.75;6.25;;;;;;;;5096434;28;8784;-57
2022/05/24 03:06:12;;;;;;;;;8.00;7.00;;;;;;;;5096496;28;8909;-57
2022/05/24 03:15:02;;;;;;;;;9.25;4.25;;;;;;;;5096092;28;8771;-57
2022/05/24 03:17:46;;;;;;;;;9.75;6.00;;;;;;;;5100111;28;8792;-57
2022/05/24 03:20:30;;;;;;;;;12.00;6.25;;;;;;;;5100097;28;8811;-58
2022/05/24 03:23:15;;;;;;;;;9.50;7.25;;;;;;;;5098996;28;8791;-58
2022/05/24 03:26:01;;;;;;;;;10.75;7.25;;;;;;;;5099849;28;8803;-57
2022/05/24 03:28:47;;;;;;;;;7.50;6.00;;;;;;;;5100008;28;8791;-58
2022/05/24 03:31:32;;;;;;;;;13.50;5.00;;;;;;;;5099793;28;8788;-59
2022/05/24 03:34:17;;;;;;;;;6.75;3.00;;;;;;;;5098946;28;8787;-58
2022/05/24 03:37:01;;;;;;;;;7.75;5.25;;;;;;;;5099697;28;8787;-56
2022/05/24 03:39:46;;;;;;;;;11.25;7.75;;;;;;;;5099457;28;8815;-56
2022/05/24 03:42:30;;;;;;;;;5.75;3.00;;;;;;;;5074482;28;8778;-55
2022/05/24 03:45:15;;;;;;;;;11.25;6.00;;;;;;;;5079359;28;8802;-59
2022/05/24 03:47:59;;;;;;;;;11.50;5.25;;;;;;;;5078994;28;8802;-58
2022/05/24 03:50:44;;;;;;;;;12.25;5.50;;;;;;;;5079220;28;8822;-58
2022/05/24 03:53:28;;;;;;;;;8.00;6.25;;;;;;;;5079514;28;9609;-56
2022/05/24 03:56:12;;;;;;;;;8.25;2.25;;;;;;;;5066849;28;8775;-58
2022/05/24 03:58:57;;;;;;;;;5.75;5.75;;;;;;;;5099316;28;8787;-58
2022/05/24 04:01:41;;;;;;;;;9.25;4.50;;;;;;;;5099469;28;8795;-57
2022/05/24 04:04:26;;;;;;;;;8.50;6.25;;;;;;;;5099690;28;8795;-57
2022/05/24 04:07:10;;;;;;;;;7.00;3.00;;;;;;;;5099159;28;8800;-59
2022/05/24 04:09:54;;;;;;;;;7.75;4.75;;;;;;;;5099290;28;8815;-57
2022/05/24 04:12:39;;;;;;;;;11.25;3.00;;;;;;;;5074416;28;8798;-57
2022/05/24 04:15:23;;;;;;;;;12.25;5.00;;;;;;;;5078669;28;8952;-59
2022/05/24 04:18:08;;;;;;;;;8.50;6.00;;;;;;;;5078463;28;8794;-56
2022/05/24 04:20:53;;;;;;;;;8.00;4.00;;;;;;;;5078641;28;8802;-57
2022/05/24 04:23:37;;;;;;;;;7.00;4.50;;;;;;;;5078671;28;8790;-58
2022/05/24 04:26:21;;;;;;;;;8.25;4.75;;;;;;;;5078424;28;8786;-58
2022/05/24 04:29:06;;;;;;;;;10.50;5.25;;;;;;;;5078272;28;8813;-57
2022/05/24 04:31:50;;;;;;;;;10.50;4.25;;;;;;;;5078318;28;8916;-57
2022/05/24 04:34:35;;;;;;;;;7.25;6.00;;;;;;;;5078478;28;8801;-59
2022/05/24 04:37:19;;;;;;;;;7.00;4.75;;;;;;;;5078374;28;8790;-57
2022/05/24 04:40:04;;;;;;;;;10.25;6.25;;;;;;;;5077908;28;8806;-58
2022/05/24 04:42:48;;;;;;;;;10.00;4.25;;;;;;;;5078383;28;8803;-57
2022/05/24 04:45:33;;;;;;;;;6.25;4.75;;;;;;;;5091642;28;8921;-57
2022/05/24 04:48:17;;;;;;;;;7.75;5.50;;;;;;;;5098366;28;8775;-57
2022/05/24 04:51:02;;;;;;;;;9.00;5.75;;;;;;;;5098303;28;8819;-58
2022/05/24 04:53:46;;;;;;;;;10.50;6.50;;;;;;;;5098367;28;8807;-59
2022/05/24 04:56:31;;;;;;;;;3.75;3.75;;;;;;;;5098607;28;8799;-57
2022/05/24 04:59:16;;;;;;;;;12.75;5.00;;;;;;;;5098078;28;8799;-58
2022/05/24 05:02:01;;;;;;;;;6.25;4.75;;;;;;;;5098365;28;8784;-57
2022/05/24 05:04:46;;;;;;;;;9.50;6.00;;;;;;;;5098291;28;8780;-59
2022/05/24 05:07:31;;;;;;;;;9.50;7.00;;;;;;;;5097903;28;8835;-60
2022/05/24 05:10:15;;;;;;;;;7.50;4.75;;;;;;;;5097478;28;8946;-59
2022/05/24 05:12:59;;;;;;;;;10.50;5.25;;;;;;;;5098201;28;8784;-58
2022/05/24 05:15:44;;;;;;;;;6.75;3.75;;;;;;;;5098068;28;8791;-62
2022/05/24 05:18:28;;;;;;;;;6.75;4.50;;;;;;;;5098140;28;8771;-58
2022/05/24 05:21:12;;;;;;;;;6.75;5.00;;;;;;;;5097888;28;8792;-58
2022/05/24 05:23:58;;;;;;;;;8.50;6.50;;;;;;;;5097894;28;8788;-58
2022/05/24 05:26:42;;;;;;;;;7.75;6.00;;;;;;;;5097848;28;8776;-57
2022/05/24 05:32:32;;;;;;;;;4.50;4.00;;;;;;;;5097360;28;8763;-56
2022/05/24 05:35:16;;;;;;;;;9.75;6.50;;;;;;;;5097557;28;8780;-58
2022/05/24 05:38:01;;;;;;;;;6.00;5.00;;;;;;;;5097625;28;8764;-58
2022/05/24 05:40:45;;;;;;;;;7.75;5.25;;;;;;;;5097104;28;8779;-58
2022/05/24 05:43:30;;;;;;;;;7.25;4.75;;;;;;;;5096189;28;8787;-58
2022/05/24 05:46:15;;;;;;;;;6.50;5.00;;;;;;;;5097547;28;8791;-58
2022/05/24 05:48:59;;;;;;;;;2.25;2.25;;;;;;;;5097370;28;8792;-57
2022/05/24 05:51:43;;;;;;;;;2.75;2.75;;;;;;;;5097210;28;8772;-59
2022/05/24 05:54:28;;;;;;;;;6.75;4.75;;;;;;;;5097079;28;8788;-58
2022/05/24 05:57:12;;;;;;;;;5.00;5.00;;;;;;;;5097218;28;8788;-57
2022/05/24 05:59:56;;;;;;;;;6.00;5.25;;;;;;;;5083132;28;8803;-59
2022/05/24 06:02:41;;;;;;;;;6.75;5.25;;;;;;;;5096943;28;8906;-57
2022/05/24 06:05:25;;;;;;;;;8.25;8.25;;;;;;;;5097116;28;8772;-58
2022/05/24 06:08:10;;;;;;;;;6.25;3.25;;;;;;;;5097250;28;8775;-59
2022/05/24 06:10:54;;;;;;;;;13.75;8.25;;;;;;;;5097011;28;9729;-57
2022/05/24 06:13:38;;;;;;;;;10.50;5.25;;;;;;;;5096798;28;8787;-58
2022/05/24 06:16:23;;;;;;;;;10.25;7.00;;;;;;;;5097064;28;8791;-58
2022/05/24 06:19:09;;;;;;;;;10.25;7.25;;;;;;;;5097086;28;8799;-57
2022/05/24 06:21:53;;;;;;;;;6.25;4.75;;;;;;;;5096888;28;8791;-58
2022/05/24 06:24:37;;;;;;;;;5.50;5.50;;;;;;;;5096845;28;8807;-57
2022/05/24 06:27:22;;;;;;;;;5.25;3.50;;;;;;;;5096861;28;8768;-59
2022/05/24 06:30:07;;;;;;;;;5.75;4.75;;;;;;;;5096948;28;8818;-58
2022/05/24 06:32:51;;;;;;;;;5.00;4.00;;;;;;;;5096597;28;8783;-58
2022/05/24 06:35:37;;;;;;;;;8.25;4.00;;;;;;;;5096693;28;8787;-58
2022/05/24 06:38:21;;;;;;;;;9.75;4.00;;;;;;;;5096807;28;8783;-58
2022/05/24 06:41:06;;;;;;;;;5.00;4.00;;;;;;;;5096584;28;9610;-56
2022/05/24 06:43:50;;;;;;;;;4.00;3.00;;;;;;;;5096342;28;8791;-58
2022/05/24 06:46:35;;;;;;;;;10.75;4.00;;;;;;;;5096774;28;8787;-57
2022/05/24 06:49:19;;;;;;;;;2.00;0.25;;;;;;;;5096804;28;8811;-57
2022/05/24 06:52:04;;;;;;;;;8.50;6.00;;;;;;;;5099282;28;8775;-58
2022/05/24 06:54:49;;;;;;;;;12.50;6.00;;;;;;;;5099174;28;8811;-59
2022/05/24 06:57:33;;;;;;;;;7.50;4.00;;;;;;;;5100631;28;8783;-59
2022/05/24 07:03:20;;;;;;;;;4.75;4.50;;;;;;;;5100748;28;8937;-59
2022/05/24 07:06:05;;;;;;;;;8.50;5.00;;;;;;;;5100406;28;8756;-57
2022/05/24 07:08:50;;;;;;;;;7.25;3.25;;;;;;;;5100104;28;8771;-58
2022/05/24 07:11:34;;;;;;;;;8.50;6.50;;;;;;;;5100508;28;9543;-58
2022/05/24 07:14:18;;;;;;;;;5.00;4.50;;;;;;;;5100613;28;8783;-55
2022/05/24 07:17:03;;;;;;;;;7.75;5.25;;;;;;;;5100224;28;8768;-56
2022/05/24 07:19:47;;;;;;;;;7.25;5.00;;;;;;;;5082932;28;8802;-57
2022/05/24 07:22:31;;;;;;;;;7.50;4.50;;;;;;;;5079928;28;8790;-58
2022/05/24 07:25:16;;;;;;;;;6.25;5.25;;;;;;;;5079761;28;8773;-56
2022/05/24 07:28:02;;;;;;;;;8.75;5.75;;;;;;;;5079624;28;8782;-56
2022/05/24 07:30:47;;;;;;;;;7.75;5.00;;;;;;;;5079437;28;8798;-55
2022/05/24 07:33:32;;;;;;;;;10.00;5.25;;;;;;;;5079756;28;8770;-54
2022/05/24 07:36:16;;;;;;;;;5.00;3.50;;;;;;;;5079756;28;8775;-55
2022/05/24 07:39:00;;;;;;;;;8.50;4.25;;;;;;;;5089178;28;8776;-55
2022/05/24 07:47:51;;;;;;;;;9.50;8.50;;;;;;;;5099391;28;8787;-56
2022/05/24 07:50:36;;;;;;;;;10.25;5.50;;;;;;;;5099703;28;8783;-56
2022/05/24 07:53:20;;;;;;;;;8.25;5.25;;;;;;;;5099587;28;8791;-55
2022/05/24 07:56:05;;;;;;;;;3.75;3.50;;;;;;;;5099328;28;9698;-56
2022/05/24 07:58:49;;;;;;;;;8.00;8.00;;;;;;;;5099481;28;8799;-55
2022/05/24 08:01:34;;;;;;;;;6.00;5.00;;;;;;;;5098978;28;8857;-55
2022/05/24 08:04:19;;;;;;;;;9.75;6.00;;;;;;;;5099199;28;8799;-56
2022/05/24 08:07:05;;;;;;;;;6.00;4.50;;;;;;;;5099358;28;8791;-56
2022/05/24 08:09:49;;;;;;;;;37.75;27.25;;;;;;;;5091196;28;9563;-55
2022/05/24 08:12:34;;;;;;;;;30.75;26.50;;;;;;;;5078820;28;8790;-56
2022/05/24 08:15:18;;;;;;;;;26.25;22.50;;;;;;;;5080528;28;8782;-54
2022/05/24 08:18:03;;;;;;;;;31.75;24.75;;;;;;;;5099008;28;8776;-56
2022/05/24 08:20:47;;;;;;;;;28.25;24.00;;;;;;;;5099144;28;9613;-56
2022/05/24 08:23:33;;;;;;;;;35.50;28.50;;;;;;;;5112115;27;8775;-56
2022/05/24 08:26:18;;;;;;;;;41.50;31.75;;;;;;;;5098775;28;8811;-56
2022/05/24 08:29:03;;;;;;;;;30.00;26.25;;;;;;;;5098905;28;8783;-57
2022/05/24 08:31:47;;;;;;;;;30.25;25.25;;;;;;;;5098751;28;8775;-57
2022/05/24 08:34:32;;;;;;;;;31.50;27.00;;;;;;;;5098998;28;8792;-56
2022/05/24 08:37:16;;;;;;;;;33.75;27.75;;;;;;;;5098725;28;8803;-56
2022/05/24 08:40:01;;;;;;;;;30.25;23.00;;;;;;;;5098353;28;8816;-54
2022/05/24 08:43:04;;;;;;;;;26.75;23.00;;;;;;;;5098594;28;8795;-55
2022/05/24 08:48:54;;;;;;;;;31.25;23.75;;;;;;;;5098459;28;8780;-56
2022/05/24 08:51:46;;;;;;;;;29.00;20.25;;;;;;;;5098427;28;8792;-55
2022/05/24 08:54:39;;;;;;;;;27.25;22.00;;;;;;;;5098372;28;8898;-54
2022/05/24 08:57:34;;;;;;;;;23.00;19.75;;;;;;;;5098515;28;8803;-56
2022/05/24 09:00:20;;;;;;;;;31.50;20.25;;;;;;;;5098180;28;8811;-55
2022/05/24 09:03:05;;;;;;;;;20.75;14.50;;;;;;;;5097112;28;8791;-55
2022/05/24 09:05:55;;;;;;;;;15.75;12.75;;;;;;;;5089159;28;9562;-53
2022/05/24 09:09:02;;;;;;;;;18.75;16.75;;;;;;;;5078013;28;8805;-56
2022/05/24 09:12:00;;;;;;;;;24.75;20.75;;;;;;;;5072976;28;8790;-55
2022/05/24 09:14:49;;;;;;;;;20.25;20.25;;;;;;;;5087692;28;8795;-55
2022/05/24 09:18:04;;;;;;;;;25.00;20.50;;;;;;;;5097491;28;8783;-55
2022/05/24 09:20:50;;;;;;;;;21.75;18.00;;;;;;;;5097915;28;8807;-55
2022/05/24 09:23:48;;;;;;;;;27.25;23.75;;;;;;;;5097610;28;8791;-56
2022/05/24 09:26:34;;;;;;;;;26.50;23.00;;;;;;;;5097774;28;8779;-55
2022/05/24 09:29:18;;;;;;;;;26.75;22.00;;;;;;;;5097967;28;8791;-56
2022/05/24 09:32:05;;;;;;;;;30.75;25.00;;;;;;;;5097458;28;8775;-54
2022/05/24 09:35:00;;;;;;;;;26.75;21.25;;;;;;;;5063338;28;8809;-55
2022/05/24 09:37:46;;;;;;;;;27.25;21.00;;;;;;;;5072320;28;9597;-56
2022/05/24 09:40:42;;;;;;;;;24.00;20.50;;;;;;;;5076877;28;8936;-56
2022/05/24 09:43:29;;;;;;;;;31.75;25.00;;;;;;;;5090116;28;8787;-55
2022/05/24 09:46:25;;;;;;;;;26.00;18.75;;;;;;;;5096636;28;8807;-56
2022/05/24 09:49:21;;;;;;;;;17.50;16.75;;;;;;;;5088781;28;8786;-56
2022/05/24 09:52:08;;;;;;;;;20.00;18.25;;;;;;;;5076683;28;8782;-56
2022/05/24 09:54:57;;;;;;;;;21.00;18.00;;;;;;;;5076556;28;8802;-56
2022/05/24 09:57:41;;;;;;;;;17.25;16.25;;;;;;;;5076206;28;8798;-57
2022/05/24 10:00:25;;;;;;;;;14.25;10.00;;;;;;;;5080317;28;8795;-53
2022/05/24 10:03:10;;;;;;;;;11.00;11.00;;;;;;;;5097018;28;8767;-52
2022/05/24 10:05:56;;;;;;;;;6.50;5.50;;;;;;;;5084777;28;8779;-51
2022/05/24 10:08:43;;;;;;;;;21.25;14.75;;;;;;;;5094116;28;8783;-51
2022/05/24 10:11:40;;;;;;;;;5.75;2.50;;;;;;;;5081418;28;8794;-54
2022/05/24 10:14:39;;;;;;;;;4.50;1.75;;;;;;;;5076156;28;8774;-51
2022/05/24 10:17:31;;;;;;;;;0.75;0.00;;;;;;;;5069955;28;8774;-52
2022/05/24 10:20:35;;;;;;;;;2.75;0.50;;;;;;;;5076518;28;8818;-53
2022/05/24 10:23:25;;;;;;;;;3.25;0.25;;;;;;;;5076235;28;8805;-52
2022/05/24 10:26:09;;;;;;;;;3.25;1.00;;;;;;;;5075353;28;8806;-53
2022/05/24 10:28:56;;;;;;;;;1.00;0.00;;;;;;;;5076221;28;9527;-53
2022/05/24 10:31:45;;;;;;;;;0.75;0.50;;;;;;;;5075911;28;8802;-53
2022/05/24 10:41:06;;;;;;;;;3.00;1.00;;;;;;;;5074634;28;8794;-55
2022/05/24 10:43:54;;;;;;;;;0.25;0.25;;;;;;;;5074262;28;8778;-52
2022/05/24 10:46:43;;;;;;;;;1.75;1.75;;;;;;;;5075877;28;8778;-52
2022/05/24 10:49:33;;;;;;;;;5.25;1.50;;;;;;;;5090207;28;8811;-51
2022/05/24 10:52:33;;;;;;;;;5.25;1.00;;;;;;;;5074124;28;8797;-51
2022/05/24 10:55:36;;;;;;;;;3.75;0.00;;;;;;;;5069238;28;8806;-52
2022/05/24 10:58:20;;;;;;;;;1.50;0.00;;;;;;;;5069272;28;8798;-51
2022/05/24 11:01:08;;;;;;;;;1.00;0.00;;;;;;;;5075603;28;8809;-53
2022/05/24 11:04:04;;;;;;;;;3.00;0.00;;;;;;;;5094360;28;8775;-53
2022/05/24 11:07:02;;;;;;;;;2.00;0.00;;;;;;;;5072719;28;8777;-52
2022/05/24 11:09:50;;;;;;;;;0.50;0.00;;;;;;;;5072108;28;8818;-52
2022/05/24 11:12:38;;;;;;;;;0.00;0.00;;;;;;;;5067443;28;8786;-53
2022/05/24 11:15:35;;;;;;;;;1.50;0.25;;;;;;;;5075924;28;8827;-52
2022/05/24 11:18:24;;;;;;;;;0.75;0.00;;;;;;;;5069908;28;8810;-52
2022/05/24 11:21:11;;;;;;;;;0.00;0.00;;;;;;;;5080118;28;8791;-52
2022/05/24 11:24:01;;;;;;;;;3.00;0.00;;;;;;;;5094845;28;8775;-52
2022/05/24 11:26:48;;;;;;;;;2.75;0.00;;;;;;;;5077476;28;8772;-52
2022/05/24 11:29:43;;;;;;;;;1.00;0.50;;;;;;;;5095944;28;8835;-50
2022/05/24 11:32:34;;;;;;;;;2.25;0.25;;;;;;;;5072319;28;9505;-51
2022/05/24 11:35:18;;;;;;;;;1.50;0.00;;;;;;;;5070376;28;8790;-54
2022/05/24 11:38:20;;;;;;;;;1.50;0.00;;;;;;;;5078289;28;8806;-51
2022/05/24 11:41:17;;;;;;;;;0.00;0.00;;;;;;;;5072319;28;8841;-53
2022/05/24 11:44:03;;;;;;;;;1.50;0.50;;;;;;;;5072880;28;8806;-52
2022/05/24 11:46:49;;;;;;;;;1.00;0.00;;;;;;;;5066768;28;9577;-50
2022/05/24 11:49:33;;;;;;;;;2.50;0.00;;;;;;;;5077308;28;8817;-54
2022/05/24 11:52:36;;;;;;;;;0.00;0.00;;;;;;;;5071779;28;8805;-52
2022/05/24 11:55:35;;;;;;;;;1.00;0.00;;;;;;;;5075648;28;8801;-53
2022/05/24 11:58:20;;;;;;;;;1.50;1.25;;;;;;;;5069196;28;8925;-53
2022/05/24 12:01:16;;;;;;;;;5.25;2.50;;;;;;;;5074758;28;8801;-54
2022/05/24 12:10:22;;;;;;;;;3.00;1.25;;;;;;;;5078845;28;8805;-52
2022/05/24 12:13:06;;;;;;;;;3.75;3.25;;;;;;;;5080303;28;8786;-52
2022/05/24 12:15:52;;;;;;;;;3.00;1.50;;;;;;;;5072400;28;9525;-55
2022/05/24 12:18:40;;;;;;;;;7.00;3.00;;;;;;;;5083161;28;8795;-53
2022/05/24 12:21:38;;;;;;;;;9.25;3.50;;;;;;;;5082013;28;8802;-51
2022/05/24 12:24:54;;;;;;;;;8.25;2.00;;;;;;;;5074598;28;8813;-53
2022/05/24 12:27:49;;;;;;;;;5.50;5.50;;;;;;;;5051727;28;9562;-53
2022/05/24 12:30:33;;;;;;;;;2.25;2.00;;;;;;;;5077799;28;9546;-54
2022/05/24 12:33:26;;;;;;;;;3.50;2.75;;;;;;;;5074778;28;8790;-51
2022/05/24 12:36:33;;;;;;;;;3.25;3.25;;;;;;;;5083462;28;8896;-53
2022/05/24 12:39:21;;;;;;;;;5.00;4.00;;;;;;;;5073844;28;8790;-54
2022/05/24 12:42:08;;;;;;;;;3.00;2.50;;;;;;;;5079329;28;8795;-51
2022/05/24 12:44:52;;;;;;;;;7.75;5.25;;;;;;;;5076672;28;8765;-54
2022/05/24 12:47:36;;;;;;;;;4.50;2.75;;;;;;;;5084536;28;8779;-53
2022/05/24 12:50:26;;;;;;;;;15.00;11.75;;;;;;;;5078236;28;8778;-50
2022/05/24 12:53:12;;;;;;;;;11.75;8.75;;;;;;;;5070957;28;8766;-52
2022/05/24 12:56:03;;;;;;;;;8.25;7.25;;;;;;;;5080295;28;8776;-54
2022/05/24 12:58:50;;;;;;;;;11.75;6.50;;;;;;;;5078220;28;8790;-52
2022/05/24 13:01:41;;;;;;;;;7.50;5.00;;;;;;;;5081894;28;8779;-52
2022/05/24 13:04:27;;;;;;;;;8.50;3.75;;;;;;;;5082234;28;8781;-54
2022/05/24 13:07:23;;;;;;;;;3.25;3.25;;;;;;;;5076951;28;8778;-54
2022/05/24 13:10:11;;;;;;;;;5.50;2.50;;;;;;;;5077768;28;8822;-52
2022/05/24 13:12:57;;;;;;;;;6.50;3.00;;;;;;;;5073972;28;8773;-54
2022/05/24 13:15:45;;;;;;;;;4.25;3.00;;;;;;;;5082993;28;8771;-53
2022/05/24 13:18:31;;;;;;;;;4.25;2.00;;;;;;;;5079828;28;8944;-53
2022/05/24 13:21:21;;;;;;;;;8.00;3.50;;;;;;;;5074364;28;9601;-53
2022/05/24 13:24:10;;;;;;;;;7.00;3.25;;;;;;;;5079587;28;8789;-50
2022/05/24 13:26:59;;;;;;;;;4.75;2.50;;;;;;;;5070728;28;8798;-54
2022/05/24 13:36:15;;;;;;;;;4.50;1.75;;;;;;;;5097295;28;8767;-54
2022/05/24 13:39:02;;;;;;;;;4.00;1.00;;;;;;;;5076494;28;9573;-52
2022/05/24 13:41:55;;;;;;;;;2.75;0.00;;;;;;;;5072121;28;8793;-54
2022/05/24 13:44:40;;;;;;;;;4.25;1.00;;;;;;;;5074913;28;8766;-53
2022/05/24 13:47:26;;;;;;;;;1.50;0.00;;;;;;;;5073330;28;8786;-53
2022/05/24 13:50:19;;;;;;;;;5.25;1.00;;;;;;;;5097451;28;8803;-52
2022/05/24 13:53:26;;;;;;;;;4.00;3.00;;;;;;;;5083646;28;8793;-51
2022/05/24 13:56:22;;;;;;;;;5.25;3.25;;;;;;;;5074957;28;8770;-54
2022/05/24 13:59:09;;;;;;;;;5.50;5.00;;;;;;;;5077030;28;8786;-51
2022/05/24 14:01:57;;;;;;;;;5.75;3.00;;;;;;;;5076772;28;8790;-51
2022/05/24 14:04:41;;;;;;;;;2.75;0.00;;;;;;;;5073257;28;8782;-54
2022/05/24 14:07:28;;;;;;;;;4.50;1.75;;;;;;;;5071939;28;8788;-54
2022/05/24 14:10:12;;;;;;;;;2.00;1.00;;;;;;;;5073995;28;9608;-54
2022/05/24 14:12:57;;;;;;;;;0.75;0.75;;;;;;;;5080585;28;8803;-54
2022/05/24 14:15:41;;;;;;;;;2.75;2.00;;;;;;;;5086809;28;8804;-54
2022/05/24 14:18:25;;;;;;;;;4.25;0.75;;;;;;;;5089291;28;8784;-53
2022/05/24 14:21:10;;;;;;;;;3.00;1.00;;;;;;;;5070099;28;8809;-51
2022/05/24 14:23:55;;;;;;;;;4.25;1.00;;;;;;;;5075066;28;9593;-54
2022/05/24 14:26:43;;;;;;;;;2.00;1.00;;;;;;;;5076303;28;8900;-54
2022/05/24 14:29:28;;;;;;;;;0.25;0.25;;;;;;;;5076032;28;8834;-51
2022/05/24 14:32:13;;;;;;;;;1.00;1.00;;;;;;;;5072258;28;8782;-52
2022/05/24 14:34:57;;;;;;;;;5.25;1.25;;;;;;;;5067702;28;8774;-54
2022/05/24 14:37:42;;;;;;;;;3.25;1.50;;;;;;;;5076042;28;8790;-53
2022/05/24 14:40:26;;;;;;;;;4.00;3.25;;;;;;;;5061253;28;8841;-54
2022/05/24 14:43:15;;;;;;;;;1.00;0.00;;;;;;;;5069563;28;8790;-52
2022/05/24 14:46:00;;;;;;;;;4.75;2.00;;;;;;;;5075334;28;8793;-50
2022/05/24 14:48:46;;;;;;;;;4.25;4.00;;;;;;;;5074294;28;8781;-53
2022/05/24 14:51:31;;;;;;;;;7.25;2.25;;;;;;;;5076886;28;8804;-55
2022/05/24 14:54:15;;;;;;;;;3.00;0.00;;;;;;;;5087327;28;8802;-54
2022/05/24 14:57:00;;;;;;;;;2.50;0.75;;;;;;;;5073851;28;8798;-54
2022/05/24 14:59:47;;;;;;;;;2.75;1.00;;;;;;;;5084816;28;8802;-51
2022/05/24 15:02:32;;;;;;;;;0.75;0.50;;;;;;;;5071182;28;8806;-55
2022/05/24 15:05:16;;;;;;;;;1.00;1.00;;;;;;;;5073429;28;8802;-55
2022/05/24 15:17:22;;;;;;;;;5.50;1.75;;;;;;;;5075701;28;8841;-54
2022/05/24 15:20:07;;;;;;;;;6.25;2.75;;;;;;;;5072720;28;8812;-53
2022/05/24 15:22:54;;;;;;;;;3.25;1.00;;;;;;;;5069275;28;8786;-53
2022/05/24 15:26:01;;;;;;;;;1.00;1.00;;;;;;;;5079867;28;8791;-54
2022/05/24 15:28:46;;;;;;;;;3.50;1.00;;;;;;;;5069294;28;8802;-53
2022/05/24 15:31:30;;;;;;;;;0.75;0.00;;;;;;;;5099043;28;8803;-53
2022/05/24 15:34:15;;;;;;;;;1.75;0.75;;;;;;;;5098314;28;8783;-54
2022/05/24 15:36:59;;;;;;;;;6.75;4.00;;;;;;;;5090085;28;8807;-51
2022/05/24 15:39:44;;;;;;;;;2.75;0.75;;;;;;;;5099624;28;8803;-53
2022/05/24 15:42:30;;;;;;;;;4.25;2.25;;;;;;;;5082107;28;8798;-54
2022/05/24 15:45:15;;;;;;;;;3.75;0.25;;;;;;;;5096714;28;8799;-53
2022/05/24 15:47:59;;;;;;;;;1.00;0.00;;;;;;;;5073798;28;8778;-54
2022/05/24 15:50:43;;;;;;;;;5.75;1.75;;;;;;;;5099057;28;8815;-54
2022/05/24 15:53:31;;;;;;;;;7.00;2.75;;;;;;;;5099725;28;8783;-52
2022/05/24 15:56:15;;;;;;;;;5.50;3.00;;;;;;;;5090981;28;8799;-53
2022/05/24 15:59:00;;;;;;;;;7.00;2.00;;;;;;;;5077481;28;8778;-53
2022/05/24 16:01:44;;;;;;;;;6.50;2.00;;;;;;;;5078798;28;8794;-53
2022/05/24 16:10:35;;;;;;;;;3.25;1.00;;;;;;;;5092180;28;8787;-51
2022/05/24 16:13:20;;;;;;;;;1.25;0.00;;;;;;;;5098008;28;8783;-52
2022/05/24 16:16:06;;;;;;;;;3.00;0.00;;;;;;;;5099631;28;8788;-53
2022/05/24 16:18:50;;;;;;;;;2.00;0.00;;;;;;;;5074379;28;8806;-55
2022/05/24 16:21:36;;;;;;;;;0.25;0.00;;;;;;;;5078239;28;8798;-53
2022/05/24 16:24:20;;;;;;;;;0.25;0.25;;;;;;;;5078511;28;8798;-53
2022/05/24 16:27:04;;;;;;;;;4.25;2.50;;;;;;;;5078501;28;8782;-53
2022/05/24 16:29:48;;;;;;;;;2.50;2.00;;;;;;;;5078111;28;8794;-53
2022/05/24 16:32:35;;;;;;;;;3.25;2.00;;;;;;;;5078177;28;8781;-53
2022/05/24 16:35:19;;;;;;;;;3.00;1.75;;;;;;;;5073694;28;9202;-54
2022/05/24 16:38:03;;;;;;;;;1.00;1.00;;;;;;;;5073637;28;8779;-52
2022/05/24 16:40:48;;;;;;;;;4.25;2.00;;;;;;;;5075797;28;8806;-52
2022/05/24 16:43:32;;;;;;;;;4.00;2.75;;;;;;;;5066502;28;9767;-53
2022/05/24 16:46:16;;;;;;;;;9.50;1.00;;;;;;;;5076700;28;8804;-53
2022/05/24 16:49:01;;;;;;;;;2.75;1.25;;;;;;;;5097653;28;9670;-53
2022/05/24 16:51:59;;;;;;;;;;;;;;;;;;;;;
2022/05/24 17:00:51;;;;;;;;;4.00;2.00;;;;;;;;5079017;28;8778;-54
2022/05/24 17:03:36;;;;;;;;;3.00;2.00;;;;;;;;5082743;28;8775;-52
2022/05/24 17:06:20;;;;;;;;;4.25;1.50;;;;;;;;5096020;28;8764;-53
2022/05/24 17:09:05;;;;;;;;;4.00;3.00;;;;;;;;5095826;28;8783;-51
2022/05/24 17:11:49;;;;;;;;;3.50;2.00;;;;;;;;5097556;28;9534;-54
2022/05/24 17:14:34;;;;;;;;;4.00;1.75;;;;;;;;5097665;28;8768;-51
2022/05/24 17:17:18;;;;;;;;;6.00;4.75;;;;;;;;5097793;28;8771;-51
2022/05/24 17:20:03;;;;;;;;;7.50;3.75;;;;;;;;5094822;28;8795;-51
2022/05/24 17:22:49;;;;;;;;;2.00;2.00;;;;;;;;5077501;28;8794;-53
2022/05/24 17:25:34;;;;;;;;;4.75;2.75;;;;;;;;5077389;28;8813;-54
2022/05/24 17:28:19;;;;;;;;;4.25;1.50;;;;;;;;5088892;28;8772;-51
2022/05/24 17:31:05;;;;;;;;;4.00;3.00;;;;;;;;5097539;28;8811;-54
2022/05/24 17:33:49;;;;;;;;;0.00;0.00;;;;;;;;5094871;28;8792;-54
2022/05/24 17:36:34;;;;;;;;;5.75;4.00;;;;;;;;5097057;28;9594;-54
2022/05/24 17:39:19;;;;;;;;;4.50;3.25;;;;;;;;5096967;28;8787;-50
2022/05/24 17:42:03;;;;;;;;;3.00;1.50;;;;;;;;5097482;28;8775;-55
2022/05/24 17:44:48;;;;;;;;;2.75;2.25;;;;;;;;5097261;28;8776;-52
2022/05/24 17:47:32;;;;;;;;;5.00;3.00;;;;;;;;5097147;28;8799;-54
2022/05/24 17:50:17;;;;;;;;;4.00;2.75;;;;;;;;5097145;28;8796;-51
2022/05/24 17:53:02;;;;;;;;;5.75;5.00;;;;;;;;5097336;28;8795;-53
2022/05/24 17:55:48;;;;;;;;;2.00;1.75;;;;;;;;5096992;28;8866;-53
2022/05/24 17:58:33;;;;;;;;;2.00;1.25;;;;;;;;5097151;28;8799;-52